»·PEaware :: SWA1621 KLAS-KSNA

SWA1621 :: KLAS-KSNA

FLIGHT INFORMATION

Flight Status: Arrived
Operator:
Southwest Airlines
More flights by this operator :: More flights under this callsign
Pilot: Dave P. (45)
Aircraft: BOEING 737-800
(B738)
More flights by this aircraft type
Origin: KLAS McCarran Intl
United States
Destination: KSNA John Wayne-Orange Co
United States
More flights between these airports :: More routes between these airports
Route: RADYR1 SLVRR FEYLA DSNEE4
File this flight plan on PilotEdge
Remarks:
Altitude:
(Current/Filed)
28,000ft
Speed:
(Current/Filed)
458kts
Departed: 04-Apr-21 02:07 PM
Arrived: 04-Apr-21 02:48 PM
Distance/Time
Traveled:
197nm/0:41
Distance/Time
To Go:
Arrived

Flight Plot

Page will automatically refresh every two minutes.

Flight plan parsing failed; only flown route is shown


Map Options




Map Legend


Flown Route
Filed Route
Departure Airport
Arrival Airport
Navaid (VOR, NDB)
Fix

Horizontal Profiles

Position Reports

Time Latitude Longitude Heading Altitude Ground
Speed
04-Apr-21 13:42 36.079566 -115.146699 27 2189ft 0kts
04-Apr-21 13:43 36.079566 -115.146699 27 2189ft 0kts
04-Apr-21 13:44 36.079566 -115.146699 27 2189ft 0kts
04-Apr-21 13:45 36.079566 -115.146699 27 2189ft 0kts
04-Apr-21 13:46 36.079566 -115.146699 27 2189ft 0kts
04-Apr-21 13:46 36.079566 -115.146699 27 2189ft 0kts
04-Apr-21 13:48 36.079566 -115.146699 27 2189ft 0kts
04-Apr-21 13:49 36.079566 -115.146699 27 2189ft 0kts
04-Apr-21 13:50 36.079566 -115.146699 27 2189ft 0kts
04-Apr-21 13:51 36.079566 -115.146699 27 2189ft 0kts
04-Apr-21 13:51 36.079566 -115.146699 27 2189ft 0kts
04-Apr-21 13:52 36.079566 -115.146699 27 2189ft 0kts
04-Apr-21 13:54 36.079566 -115.146699 27 2189ft 0kts
04-Apr-21 13:54 36.079566 -115.146699 27 2189ft 0kts
04-Apr-21 13:56 36.079566 -115.146699 27 2189ft 0kts
04-Apr-21 13:56 36.079566 -115.146699 27 2189ft 0kts
04-Apr-21 13:57 36.079101 -115.147014 50 2189ft 2kts
04-Apr-21 13:58 36.079092 -115.147216 122 2189ft 0kts
04-Apr-21 13:59 36.079092 -115.147216 122 2189ft 0kts
04-Apr-21 14:00 36.078611 -115.146982 138 2189ft 12kts
04-Apr-21 14:01 36.078270 -115.140222 89 2189ft 23kts
04-Apr-21 14:02 36.078278 -115.132045 90 2189ft 23kts
04-Apr-21 14:03 36.078285 -115.124193 89 2189ft 22kts
04-Apr-21 14:04 36.077434 -115.121396 133 2189ft 0kts
04-Apr-21 14:05 36.076427 -115.122422 271 2189ft 8kts
04-Apr-21 14:06 36.076330 -115.153220 269 2454ft 177kts
04-Apr-21 14:07 36.074582 -115.218952 263 4693ft 232kts
04-Apr-21 14:08 36.032060 -115.279103 193 7349ft 276kts
04-Apr-21 14:09 35.955544 -115.304299 191 9220ft 287kts
04-Apr-21 14:10 35.873903 -115.323286 192 11750ft 327kts
04-Apr-21 14:11 35.777570 -115.346710 193 13941ft 366kts
04-Apr-21 14:12 35.675031 -115.371763 194 16765ft 384kts
04-Apr-21 14:13 35.580047 -115.426739 227 19375ft 386kts
04-Apr-21 14:14 35.507060 -115.525791 231 21855ft 396kts
04-Apr-21 14:15 35.431772 -115.627281 231 23988ft 407kts
04-Apr-21 14:16 35.354585 -115.730778 231 25868ft 417kts
04-Apr-21 14:17 35.276873 -115.834676 231 27983ft 413kts
04-Apr-21 14:18 35.198677 -115.937551 230 28039ft 411kts
04-Apr-21 14:19 35.118862 -116.037323 230 28043ft 410kts
04-Apr-21 14:20 35.039471 -116.137713 230 28045ft 411kts
04-Apr-21 14:21 34.959498 -116.237798 229 28058ft 412kts
04-Apr-21 14:22 34.879728 -116.337430 230 28056ft 405kts
04-Apr-21 14:23 34.803195 -116.435258 230 28081ft 397kts
04-Apr-21 14:24 34.731191 -116.526628 230 28079ft 345kts
04-Apr-21 14:25 34.661502 -116.607055 222 25008ft 374kts
04-Apr-21 14:26 34.578881 -116.686795 222 22692ft 374kts
04-Apr-21 14:27 34.499693 -116.764207 224 20574ft 347kts
04-Apr-21 14:28 34.429162 -116.846704 227 18562ft 352kts
04-Apr-21 14:29 34.358190 -116.928990 226 16414ft 351kts
04-Apr-21 14:30 34.288515 -117.009283 225 14539ft 342kts
04-Apr-21 14:31 34.213519 -117.072345 213 13387ft 330kts
04-Apr-21 14:32 34.132108 -117.124763 205 12643ft 334kts
04-Apr-21 14:33 34.047025 -117.169170 206 12113ft 333kts
04-Apr-21 14:34 33.973128 -117.227909 230 11332ft 311kts
04-Apr-21 14:35 33.919936 -117.303622 232 10096ft 300kts
04-Apr-21 14:36 33.868984 -117.375620 232 8958ft 262kts
04-Apr-21 14:37 33.822555 -117.442298 239 7891ft 255kts
04-Apr-21 14:38 33.796861 -117.518189 262 7389ft 238kts
04-Apr-21 14:39 33.803161 -117.592808 289 7243ft 211kts
04-Apr-21 14:40 33.823567 -117.656912 291 6262ft 187kts
04-Apr-21 14:41 33.841945 -117.715293 281 4285ft 187kts
04-Apr-21 14:42 33.827216 -117.774884 227 2799ft 185kts
04-Apr-21 14:43 33.782408 -117.801299 207 2260ft 180kts
04-Apr-21 14:44 33.739903 -117.828122 208 1335ft 160kts
04-Apr-21 14:45 33.705078 -117.850215 209 584ft 135kts
04-Apr-21 14:46 33.674002 -117.869941 206 64ft 69kts
04-Apr-21 14:47 33.670202 -117.869799 40 64ft 16kts
04-Apr-21 14:48 33.673688 -117.866743 27 64ft 13kts
04-Apr-21 14:49 33.675398 -117.864984 118 64ft 3kts
04-Apr-21 14:50 33.675348 -117.864874 118 64ft 0kts
04-Apr-21 14:51 33.675348 -117.864874 118 64ft 0kts
04-Apr-21 14:52 33.675348 -117.864874 118 64ft 0kts
04-Apr-21 14:53 33.675348 -117.864874 118 64ft 0kts
04-Apr-21 14:54 33.675348 -117.864874 118 64ft 0kts
04-Apr-21 14:55 33.675348 -117.864874 118 64ft 0kts

Navigation Log

Ident Type
Flight plan parsing failed, navigation log unavailable